KOPL/OPL METAR and TAF weather

Enter ICAO airport designator
Station Type Date Time Source
KOPL METAR 2021/04/17 01:35 UTC NOAA

KOPL 170135Z AUTO 10004KT 10SM -RA BKN005 BKN011 OVC046 17/16 A2981 RMK AO2 LTG DSNT SW P0001 T01700161


Station Type Date Time Source
KOPL Decoded METAR 2021/04/17 01:35 UTC NOAA

Station name not available
Apr 16, 2021 - 09:35 PM EDT / 2021.04.17 0135 UTC
Wind: from the E (100 degrees) at 5 MPH (4 KT):0
Visibility: 10 mile(s):0
Sky conditions: overcast
Weather: light rain; Lightning observed
Precipitation last hour: 0.01 inches
Temperature: 62.6 F (17.0 C)
Dew Point: 61.0 F (16.1 C)
Relative Humidity: 94%
Pressure (altimeter): 29.81 in. Hg (1009 hPa)
ob: KOPL 170135Z AUTO 10004KT 10SM -RA BKN005 BKN011 OVC046 17/16 A2981 RMK AO2 LTG DSNT SW P0001 T01700161
cycle: 1

Station Type Date Time Source
KOPL TAF UTC NOAA

Error!

Example: see airport list